DAL9Z KMEM-KBHM
Flight info
| Callsign | DAL9Z |
|---|---|
| Flight time | 0h 36m |
| Altitude | 25000 |
| Route | BBKNG7 KERMI VUZ |
| Aircraft | A320/M-SDE3FGHIRWY/LB1 |
Departure
| Time | 2026-05-05 16:56 |
|---|---|
| Airport | Memphis International Airport (KMEM) |
Arrival
| Time | 2026-05-05 17:32 |
|---|---|
| Airport | Birmingham-Shuttlesworth International Airport (KBHM) |
| Time | Latitude | Longitude | Altitude | Speed | Heading |
|---|---|---|---|---|---|
| 2026-05-05 16:38 | 35.04196 | -89.98037 | 340 ft | 0 kts | 223° |
| 2026-05-05 16:45 | 35.04203 | -89.98029 | 326 ft | 2 kts | 216° |
| 2026-05-05 16:45 | 35.04216 | -89.98017 | 326 ft | 2 kts | 204° |
| 2026-05-05 16:45 | 35.04232 | -89.98014 | 329 ft | 2 kts | 142° |
| 2026-05-05 16:46 | 35.04240 | -89.98023 | 326 ft | 1 kts | 136° |
| 2026-05-05 16:46 | 35.04241 | -89.98024 | 326 ft | 0 kts | 135° |
| 2026-05-05 16:49 | 35.04235 | -89.98017 | 328 ft | 2 kts | 135° |
| 2026-05-05 16:50 | 35.04213 | -89.97990 | 327 ft | 6 kts | 135° |
| 2026-05-05 16:50 | 35.04191 | -89.97946 | 328 ft | 7 kts | 96° |
| 2026-05-05 16:50 | 35.04192 | -89.97889 | 328 ft | 7 kts | 89° |
| 2026-05-05 16:50 | 35.04193 | -89.97836 | 327 ft | 5 kts | 89° |
| 2026-05-05 16:51 | 35.04194 | -89.97795 | 330 ft | 7 kts | 89° |
| 2026-05-05 16:51 | 35.04230 | -89.97743 | 329 ft | 9 kts | 7° |
| 2026-05-05 16:51 | 35.04282 | -89.97744 | 327 ft | 6 kts | 358° |
| 2026-05-05 16:51 | 35.04339 | -89.97746 | 326 ft | 13 kts | 359° |
| 2026-05-05 16:52 | 35.04452 | -89.97748 | 326 ft | 16 kts | 360° |
| 2026-05-05 16:52 | 35.04556 | -89.97750 | 327 ft | 14 kts | 358° |
| 2026-05-05 16:52 | 35.04648 | -89.97752 | 325 ft | 14 kts | 359° |
| 2026-05-05 16:52 | 35.04763 | -89.97756 | 325 ft | 18 kts | 359° |
| 2026-05-05 16:53 | 35.04878 | -89.97757 | 326 ft | 15 kts | 359° |
| 2026-05-05 16:53 | 35.04973 | -89.97759 | 325 ft | 12 kts | 359° |
| 2026-05-05 16:53 | 35.05052 | -89.97761 | 326 ft | 12 kts | 359° |
| 2026-05-05 16:53 | 35.05167 | -89.97765 | 326 ft | 17 kts | 359° |
| 2026-05-05 16:54 | 35.05275 | -89.97766 | 325 ft | 14 kts | 359° |
| 2026-05-05 16:54 | 35.05363 | -89.97776 | 325 ft | 11 kts | 353° |
| 2026-05-05 16:54 | 35.05428 | -89.97768 | 328 ft | 8 kts | 32° |
| 2026-05-05 16:54 | 35.05446 | -89.97681 | 324 ft | 14 kts | 93° |
| 2026-05-05 16:55 | 35.05375 | -89.97615 | 324 ft | 16 kts | 179° |
| 2026-05-05 16:55 | 35.05112 | -89.97610 | 322 ft | 72 kts | 179° |
| 2026-05-05 16:55 | 35.04394 | -89.97595 | 323 ft | 132 kts | 178° |
| 2026-05-05 16:55 | 35.03362 | -89.97573 | 728 ft | 148 kts | 178° |
| 2026-05-05 16:56 | 35.02334 | -89.97534 | 1362 ft | 149 kts | 182° |
| 2026-05-05 16:56 | 35.01614 | -89.97504 | 1645 ft | 166 kts | 182° |
| 2026-05-05 16:56 | 35.00369 | -89.97450 | 1954 ft | 192 kts | 182° |
| 2026-05-05 16:56 | 34.98941 | -89.97379 | 2384 ft | 218 kts | 179° |
| 2026-05-05 16:57 | 34.97380 | -89.96842 | 2881 ft | 248 kts | 163° |
| 2026-05-05 16:57 | 34.95732 | -89.96056 | 3730 ft | 258 kts | 163° |
| 2026-05-05 16:57 | 34.94089 | -89.95107 | 4580 ft | 270 kts | 147° |
| 2026-05-05 16:57 | 34.92986 | -89.93247 | 5362 ft | 283 kts | 110° |
| 2026-05-05 16:58 | 34.92639 | -89.90866 | 6452 ft | 287 kts | 99° |
| 2026-05-05 16:58 | 34.92513 | -89.88428 | 7427 ft | 291 kts | 95° |
| 2026-05-05 16:58 | 34.92459 | -89.85939 | 8287 ft | 298 kts | 94° |
| 2026-05-05 16:58 | 34.92414 | -89.83385 | 9148 ft | 304 kts | 94° |
| 2026-05-05 16:59 | 34.92353 | -89.80758 | 10024 ft | 309 kts | 94° |
| 2026-05-05 16:59 | 34.92263 | -89.78036 | 10412 ft | 333 kts | 95° |
| 2026-05-05 16:59 | 34.92145 | -89.75169 | 10821 ft | 352 kts | 95° |
| 2026-05-05 16:59 | 34.92003 | -89.72126 | 11570 ft | 358 kts | 95° |
| 2026-05-05 17:00 | 34.91853 | -89.69072 | 12397 ft | 362 kts | 95° |
| 2026-05-05 17:00 | 34.91697 | -89.65994 | 13226 ft | 366 kts | 95° |
| 2026-05-05 17:00 | 34.91558 | -89.62881 | 14009 ft | 370 kts | 94° |
| 2026-05-05 17:00 | 34.91504 | -89.59727 | 14697 ft | 375 kts | 92° |
| 2026-05-05 17:01 | 34.91508 | -89.56529 | 15360 ft | 379 kts | 91° |
| 2026-05-05 17:01 | 34.91537 | -89.53306 | 16039 ft | 383 kts | 90° |
| 2026-05-05 17:01 | 34.91569 | -89.50036 | 16700 ft | 388 kts | 90° |
| 2026-05-05 17:01 | 34.91591 | -89.46731 | 17352 ft | 392 kts | 91° |
| 2026-05-05 17:02 | 34.91598 | -89.43393 | 18001 ft | 396 kts | 91° |
| 2026-05-05 17:02 | 34.91594 | -89.40012 | 18574 ft | 401 kts | 91° |
| 2026-05-05 17:02 | 34.91584 | -89.36605 | 19120 ft | 406 kts | 91° |
| 2026-05-05 17:02 | 34.91570 | -89.33094 | 19679 ft | 410 kts | 91° |
| 2026-05-05 17:03 | 34.91552 | -89.29643 | 20217 ft | 415 kts | 91° |
| 2026-05-05 17:03 | 34.91534 | -89.26062 | 20769 ft | 420 kts | 91° |
| 2026-05-05 17:03 | 34.91490 | -89.22478 | 21312 ft | 425 kts | 95° |
| 2026-05-05 17:03 | 34.91079 | -89.18907 | 21836 ft | 428 kts | 104° |
| 2026-05-05 17:04 | 34.90446 | -89.15339 | 22373 ft | 433 kts | 104° |
| 2026-05-05 17:04 | 34.89809 | -89.11737 | 22906 ft | 437 kts | 103° |
| 2026-05-05 17:04 | 34.89181 | -89.08094 | 23429 ft | 442 kts | 103° |
| 2026-05-05 17:04 | 34.88557 | -89.04409 | 23865 ft | 446 kts | 103° |
| 2026-05-05 17:05 | 34.87934 | -89.00691 | 24310 ft | 450 kts | 103° |
| 2026-05-05 17:05 | 34.87306 | -88.96943 | 24736 ft | 453 kts | 103° |
| 2026-05-05 17:05 | 34.86672 | -88.93182 | 24922 ft | 455 kts | 103° |
| 2026-05-05 17:05 | 34.86039 | -88.89439 | 24964 ft | 447 kts | 103° |
| 2026-05-05 17:06 | 34.85411 | -88.85757 | 24970 ft | 444 kts | 103° |
| 2026-05-05 17:06 | 34.84780 | -88.82082 | 24978 ft | 443 kts | 103° |
| 2026-05-05 17:06 | 34.84139 | -88.78364 | 24983 ft | 443 kts | 103° |
| 2026-05-05 17:06 | 34.83507 | -88.74694 | 24981 ft | 443 kts | 103° |
| 2026-05-05 17:07 | 34.82876 | -88.71026 | 24986 ft | 443 kts | 103° |
| 2026-05-05 17:07 | 34.82242 | -88.67358 | 24985 ft | 443 kts | 103° |
| 2026-05-05 17:07 | 34.81605 | -88.63686 | 24990 ft | 443 kts | 103° |
| 2026-05-05 17:07 | 34.80967 | -88.60015 | 24984 ft | 443 kts | 103° |
| 2026-05-05 17:08 | 34.80329 | -88.56345 | 24982 ft | 444 kts | 103° |
| 2026-05-05 17:08 | 34.79691 | -88.52671 | 24982 ft | 444 kts | 103° |
| 2026-05-05 17:08 | 34.79055 | -88.49013 | 24981 ft | 444 kts | 103° |
| 2026-05-05 17:08 | 34.78412 | -88.45329 | 24973 ft | 444 kts | 103° |
| 2026-05-05 17:09 | 34.77771 | -88.41659 | 24969 ft | 444 kts | 103° |
| 2026-05-05 17:09 | 34.77129 | -88.37996 | 24965 ft | 444 kts | 103° |
| 2026-05-05 17:09 | 34.76484 | -88.34324 | 24963 ft | 444 kts | 103° |
| 2026-05-05 17:09 | 34.75836 | -88.30650 | 24960 ft | 444 kts | 103° |
| 2026-05-05 17:10 | 34.75177 | -88.26931 | 24960 ft | 444 kts | 103° |
| 2026-05-05 17:10 | 34.74528 | -88.23261 | 24960 ft | 444 kts | 103° |
| 2026-05-05 17:10 | 34.73766 | -88.19621 | 24962 ft | 443 kts | 110° |
| 2026-05-05 17:10 | 34.72555 | -88.16196 | 24961 ft | 440 kts | 121° |
| 2026-05-05 17:11 | 34.70912 | -88.13084 | 24962 ft | 436 kts | 131° |
| 2026-05-05 17:11 | 34.68896 | -88.10357 | 24961 ft | 432 kts | 140° |
| 2026-05-05 17:11 | 34.66749 | -88.07799 | 24961 ft | 432 kts | 140° |
| 2026-05-05 17:11 | 34.64610 | -88.05236 | 24955 ft | 432 kts | 139° |
| 2026-05-05 17:12 | 34.62473 | -88.02666 | 24961 ft | 433 kts | 139° |
| 2026-05-05 17:12 | 34.60334 | -88.00088 | 24961 ft | 433 kts | 139° |
| 2026-05-05 17:12 | 34.58195 | -87.97514 | 24961 ft | 433 kts | 139° |
| 2026-05-05 17:12 | 34.56055 | -87.94948 | 24960 ft | 433 kts | 139° |
| 2026-05-05 17:13 | 34.53913 | -87.92381 | 24963 ft | 434 kts | 139° |
| 2026-05-05 17:13 | 34.51761 | -87.89806 | 24964 ft | 433 kts | 139° |
| 2026-05-05 17:13 | 34.49589 | -87.87210 | 24970 ft | 434 kts | 140° |
| 2026-05-05 17:13 | 34.47438 | -87.84641 | 24961 ft | 434 kts | 140° |
| 2026-05-05 17:14 | 34.45291 | -87.82080 | 24960 ft | 434 kts | 140° |
| 2026-05-05 17:14 | 34.43137 | -87.79511 | 24962 ft | 434 kts | 140° |
| 2026-05-05 17:14 | 34.40992 | -87.76953 | 24848 ft | 430 kts | 140° |
| 2026-05-05 17:14 | 34.38873 | -87.74429 | 24613 ft | 425 kts | 140° |
| 2026-05-05 17:15 | 34.36770 | -87.71931 | 24371 ft | 422 kts | 140° |
| 2026-05-05 17:15 | 34.34680 | -87.69446 | 24142 ft | 421 kts | 140° |
| 2026-05-05 17:15 | 34.32594 | -87.66969 | 23914 ft | 419 kts | 140° |
| 2026-05-05 17:15 | 34.30527 | -87.64516 | 23528 ft | 415 kts | 140° |
| 2026-05-05 17:16 | 34.28473 | -87.62076 | 22959 ft | 413 kts | 140° |
| 2026-05-05 17:16 | 34.26423 | -87.59645 | 22451 ft | 411 kts | 140° |
| 2026-05-05 17:16 | 34.24391 | -87.57237 | 21925 ft | 409 kts | 139° |
| 2026-05-05 17:16 | 34.22339 | -87.54805 | 21398 ft | 407 kts | 139° |
| 2026-05-05 17:17 | 34.20320 | -87.52415 | 20874 ft | 406 kts | 139° |
| 2026-05-05 17:17 | 34.18303 | -87.50031 | 20352 ft | 404 kts | 139° |
| 2026-05-05 17:17 | 34.16300 | -87.47665 | 19833 ft | 403 kts | 139° |
| 2026-05-05 17:17 | 34.14295 | -87.45303 | 19310 ft | 402 kts | 139° |
| 2026-05-05 17:18 | 34.12298 | -87.42954 | 18802 ft | 400 kts | 139° |
| 2026-05-05 17:18 | 34.10309 | -87.40612 | 18292 ft | 399 kts | 139° |
| 2026-05-05 17:18 | 34.08324 | -87.38276 | 17714 ft | 397 kts | 139° |
| 2026-05-05 17:18 | 34.06347 | -87.35955 | 17146 ft | 396 kts | 139° |
| 2026-05-05 17:19 | 34.04380 | -87.33643 | 16587 ft | 395 kts | 139° |
| 2026-05-05 17:19 | 34.02427 | -87.31346 | 16227 ft | 388 kts | 138° |
| 2026-05-05 17:19 | 34.00525 | -87.29103 | 15932 ft | 380 kts | 138° |
| 2026-05-05 17:19 | 33.98635 | -87.26876 | 15457 ft | 378 kts | 139° |
| 2026-05-05 17:20 | 33.96759 | -87.24674 | 14976 ft | 376 kts | 139° |
| 2026-05-05 17:20 | 33.94895 | -87.22494 | 14632 ft | 371 kts | 139° |
| 2026-05-05 17:20 | 33.93055 | -87.20344 | 14255 ft | 366 kts | 138° |
| 2026-05-05 17:20 | 33.91202 | -87.18175 | 13770 ft | 366 kts | 138° |
| 2026-05-05 17:21 | 33.89389 | -87.16050 | 13325 ft | 362 kts | 138° |
| 2026-05-05 17:21 | 33.87600 | -87.13951 | 12895 ft | 359 kts | 140° |
| 2026-05-05 17:21 | 33.85812 | -87.11857 | 12457 ft | 355 kts | 138° |
| 2026-05-05 17:22 | 33.82342 | -87.07804 | 10982 ft | 339 kts | 139° |
| 2026-05-05 17:22 | 33.81798 | -87.07169 | 10827 ft | 334 kts | 139° |
| 2026-05-05 17:22 | 33.81488 | -87.06815 | 10794 ft | 325 kts | 143° |
| 2026-05-05 17:22 | 33.79899 | -87.05114 | 11096 ft | 298 kts | 141° |
| 2026-05-05 17:23 | 33.78371 | -87.03364 | 10614 ft | 303 kts | 139° |
| 2026-05-05 17:23 | 33.76897 | -87.01605 | 10065 ft | 297 kts | 139° |
| 2026-05-05 17:23 | 33.75456 | -86.99872 | 9737 ft | 291 kts | 139° |
| 2026-05-05 17:23 | 33.74008 | -86.98146 | 9270 ft | 294 kts | 139° |
| 2026-05-05 17:24 | 33.72557 | -86.96431 | 8783 ft | 294 kts | 139° |
| 2026-05-05 17:24 | 33.71112 | -86.94736 | 8241 ft | 286 kts | 139° |
| 2026-05-05 17:24 | 33.70156 | -86.93618 | 7812 ft | 283 kts | 139° |
| 2026-05-05 17:24 | 33.68789 | -86.91941 | 7274 ft | 280 kts | 131° |
| 2026-05-05 17:25 | 33.67940 | -86.90267 | 6837 ft | 277 kts | 116° |
| 2026-05-05 17:25 | 33.67551 | -86.88817 | 6499 ft | 276 kts | 103° |
| 2026-05-05 17:25 | 33.67540 | -86.85778 | 5796 ft | 272 kts | 82° |
| 2026-05-05 17:25 | 33.67831 | -86.83559 | 5288 ft | 270 kts | 82° |
| 2026-05-05 17:26 | 33.68107 | -86.81347 | 4929 ft | 260 kts | 84° |
| 2026-05-05 17:26 | 33.68361 | -86.79302 | 4874 ft | 236 kts | 83° |
| 2026-05-05 17:26 | 33.68595 | -86.77417 | 4806 ft | 222 kts | 83° |
| 2026-05-05 17:26 | 33.68813 | -86.75636 | 4752 ft | 209 kts | 83° |
| 2026-05-05 17:27 | 33.69016 | -86.73968 | 4635 ft | 197 kts | 84° |
| 2026-05-05 17:27 | 33.69209 | -86.72373 | 4535 ft | 187 kts | 85° |
| 2026-05-05 17:27 | 33.69396 | -86.70857 | 4445 ft | 175 kts | 84° |
| 2026-05-05 17:27 | 33.69535 | -86.69413 | 4350 ft | 179 kts | 94° |
| 2026-05-05 17:28 | 33.69360 | -86.67945 | 4099 ft | 178 kts | 112° |
| 2026-05-05 17:28 | 33.68852 | -86.66603 | 3841 ft | 175 kts | 128° |
| 2026-05-05 17:28 | 33.68063 | -86.65493 | 3621 ft | 177 kts | 142° |
| 2026-05-05 17:28 | 33.67064 | -86.64698 | 3381 ft | 167 kts | 158° |
| 2026-05-05 17:29 | 33.65988 | -86.64273 | 3165 ft | 163 kts | 174° |
| 2026-05-05 17:29 | 33.64893 | -86.64196 | 2947 ft | 154 kts | 184° |
| 2026-05-05 17:29 | 33.63821 | -86.64451 | 2758 ft | 159 kts | 200° |
| 2026-05-05 17:29 | 33.62835 | -86.65022 | 2507 ft | 157 kts | 212° |
| 2026-05-05 17:30 | 33.62021 | -86.65853 | 2314 ft | 150 kts | 225° |
| 2026-05-05 17:30 | 33.61409 | -86.66839 | 2124 ft | 145 kts | 232° |
| 2026-05-05 17:30 | 33.60852 | -86.67818 | 1905 ft | 141 kts | 232° |
| 2026-05-05 17:30 | 33.60315 | -86.68797 | 1711 ft | 141 kts | 229° |
| 2026-05-05 17:31 | 33.59750 | -86.69741 | 1543 ft | 140 kts | 232° |
| 2026-05-05 17:31 | 33.59185 | -86.70699 | 1339 ft | 141 kts | 231° |
| 2026-05-05 17:31 | 33.58644 | -86.71675 | 1129 ft | 138 kts | 232° |
| 2026-05-05 17:31 | 33.58091 | -86.72618 | 944 ft | 138 kts | 233° |
| 2026-05-05 17:32 | 33.57546 | -86.73571 | 777 ft | 138 kts | 231° |
| 2026-05-05 17:32 | 33.57003 | -86.74518 | 622 ft | 134 kts | 234° |
| 2026-05-05 17:32 | 33.56545 | -86.75305 | 616 ft | 92 kts | 235° |
| 2026-05-05 17:32 | 33.56277 | -86.75771 | 614 ft | 43 kts | 235° |
| 2026-05-05 17:33 | 33.56132 | -86.76023 | 620 ft | 35 kts | 235° |
| 2026-05-05 17:33 | 33.55999 | -86.76251 | 613 ft | 33 kts | 236° |
| 2026-05-05 17:33 | 33.55907 | -86.76406 | 611 ft | 15 kts | 219° |
| 2026-05-05 17:33 | 33.55826 | -86.76367 | 619 ft | 15 kts | 97° |
| 2026-05-05 17:34 | 33.55876 | -86.76262 | 621 ft | 14 kts | 55° |
| 2026-05-05 17:34 | 33.55930 | -86.76169 | 608 ft | 13 kts | 55° |
| 2026-05-05 17:34 | 33.55979 | -86.76084 | 617 ft | 12 kts | 55° |
| 2026-05-05 17:34 | 33.56023 | -86.76008 | 618 ft | 10 kts | 55° |
| 2026-05-05 17:35 | 33.56071 | -86.75926 | 614 ft | 13 kts | 55° |
| 2026-05-05 17:35 | 33.56120 | -86.75840 | 613 ft | 12 kts | 55° |
| 2026-05-05 17:35 | 33.56165 | -86.75763 | 619 ft | 11 kts | 56° |
| 2026-05-05 17:35 | 33.56186 | -86.75697 | 616 ft | 8 kts | 104° |
| 2026-05-05 17:36 | 33.56152 | -86.75648 | 608 ft | 8 kts | 113° |
| 2026-05-05 17:36 | 33.56185 | -86.75567 | 612 ft | 12 kts | 56° |
| 2026-05-05 17:36 | 33.56226 | -86.75494 | 610 ft | 8 kts | 56° |
| 2026-05-05 17:36 | 33.56243 | -86.75460 | 613 ft | 3 kts | 67° |
| 2026-05-05 17:37 | 33.56240 | -86.75434 | 611 ft | 3 kts | 122° |
| 2026-05-05 17:37 | 33.56195 | -86.75418 | 608 ft | 7 kts | 168° |
| 2026-05-05 17:37 | 33.56180 | -86.75414 | 621 ft | 2 kts | 168° |
| 2026-05-05 17:37 | 33.56168 | -86.75411 | 616 ft | 1 kts | 168° |
| 2026-05-05 17:38 | 33.56167 | -86.75411 | 616 ft | 0 kts | 168° |